Time;durP1;ratioP1;P1;durP2;ratioP2;P2;SDS_P1;SDS_P2;PMS_P1;PMS_P2;Temp;Humidity;BMP_temperature;BMP_pressure;BME280_temperature;BME280_humidity;BME280_pressure;Samples;Min_cycle;Max_cycle;Signal;HPM_P1;HPM_P2
2020/12/02 00:00:04;;;;;;;;;;;;;;;;;;4942423;28;1654;-68
2020/12/02 00:02:33;;;;;;;;;;;;;;;;;;4943795;29;1419;-68
2020/12/02 00:05:00;;;;;;;;;;;;;;;;;;4942823;28;1567;-68
2020/12/02 00:07:29;;;;;;;;;;;;;;;;;;4944937;28;1910;-68
2020/12/02 00:09:55;;;;;;;;;;;;;;;;;;4943263;29;1689;-70
2020/12/02 00:12:21;;;;;;;;;;;;;;;;;;4948482;28;1475;-68
2020/12/02 00:14:46;;;;;;;;;;;;;;;;;;4953494;28;941;-68
2020/12/02 00:17:16;;;;;;;;;;;;;;;;;;4984684;28;1206;-68
2020/12/02 00:19:41;;;;;;;;;;;;;;;;;;4953545;28;873;-68
2020/12/02 00:22:08;;;;;;;;;;;;;;;;;;4952732;29;1449;-67
2020/12/02 00:24:34;;;;;;;;;;;;;;;;;;4952273;28;1171;-66
2020/12/02 00:27:07;;;;;;;;;;;;;;;;;;4953050;28;1959;-69
2020/12/02 00:29:32;;;;;;;;;;;;;;;;;;4953543;28;882;-68
2020/12/02 00:31:57;;;;;;;;;;;;;;;;;;4952120;28;1577;-68
2020/12/02 00:34:23;;;;;;;;;;;;;;;;;;4984758;28;882;-67
2020/12/02 00:36:48;;;;;;;;;;;;;;;;;;4968092;28;1219;-68
2020/12/02 00:39:13;;;;;;;;;;;;;;;;;;4953360;28;932;-67
2020/12/02 00:41:38;;;;;;;;;;;;;;;;;;4953366;28;1286;-66
2020/12/02 00:44:04;;;;;;;;;;;;;;;;;;4953223;28;849;-70
2020/12/02 00:46:29;;;;;;;;;;;;;;;;;;4953445;28;804;-67
2020/12/02 00:48:54;;;;;;;;;;;;;;;;;;4951672;29;1890;-67
2020/12/02 00:51:20;;;;;;;;;;;;;;;;;;4953185;28;1354;-69
2020/12/02 00:53:45;;;;;;;;;;;;;;;;;;4984392;28;877;-67
2020/12/02 00:56:12;;;;;;;;;;;;;;;;;;4952836;28;1000;-69
2020/12/02 00:58:40;;;;;;;;;;;;;;;;;;4953148;28;964;-69
2020/12/02 01:01:07;;;;;;;;;;;;;;;;;;4952745;28;850;-68
2020/12/02 01:03:34;;;;;;;;;;;;;;;;;;4953052;28;1337;-67
2020/12/02 01:06:00;;;;;;;;;;;;;;;;;;4952488;28;900;-67
2020/12/02 01:08:27;;;;;;;;;;;;;;;;;;4952862;28;1950;-67
2020/12/02 01:10:58;;;;;;;;;;;;;;;;;;4951990;28;1402;-67
2020/12/02 01:13:24;;;;;;;;;;;;;;;;;;4952901;28;1393;-69
2020/12/02 01:15:49;;;;;;;;;;;;;;;;;;4951413;28;1238;-69
2020/12/02 01:18:23;;;;;;;;;;;;;;;;;;4952551;28;846;-68
2020/12/02 01:20:53;;;;;;;;;;;;;;;;;;4952800;28;842;-67
2020/12/02 01:23:18;;;;;;;;;;;;;;;;;;4951332;28;1306;-67
2020/12/02 01:25:44;;;;;;;;;;;;;;;;;;4952475;28;972;-68
2020/12/02 01:28:14;;;;;;;;;;;;;;;;;;4952319;28;1895;-67
2020/12/02 01:30:41;;;;;;;;;;;;;;;;;;4952850;28;1055;-67
2020/12/02 01:33:07;;;;;;;;;;;;;;;;;;4952288;28;1342;-67
2020/12/02 01:35:33;;;;;;;;;;;;;;;;;;4952693;28;960;-67
2020/12/02 01:38:00;;;;;;;;;;;;;;;;;;4951957;28;948;-67
2020/12/02 01:40:27;;;;;;;;;;;;;;;;;;4952996;28;871;-66
2020/12/02 01:43:03;;;;;;;;;;;;;;;;;;4952368;28;1318;-67
2020/12/02 01:45:48;;;;;;;;;;;;;;;;;;4952303;28;992;-68
2020/12/02 01:48:23;;;;;;;;;;;;;;;;;;4952198;28;1961;-68
2020/12/02 01:51:17;;;;;;;;;;;;;;;;;;4951568;28;1505;-68
2020/12/02 01:53:42;;;;;;;;;;;;;;;;;;4951696;29;1305;-66
2020/12/02 01:56:15;;;;;;;;;;;;;;;;;;4954162;28;842;-67
2020/12/02 01:58:54;;;;;;;;;;;;;;;;;;4955810;28;834;-68
2020/12/02 02:01:23;;;;;;;;;;;;;;;;;;4954667;28;1316;-69
2020/12/02 02:03:50;;;;;;;;;;;;;;;;;;4954702;28;818;-67
2020/12/02 02:06:38;;;;;;;;;;;;;;;;;;4955452;28;905;-66
2020/12/02 02:09:03;;;;;;;;;;;;;;;;;;4954259;28;1132;-68
2020/12/02 02:11:29;;;;;;;;;;;;;;;;;;4954561;28;1361;-66
2020/12/02 02:14:13;;;;;;;;;;;;;;;;;;4955309;28;813;-69
2020/12/02 02:16:45;;;;;;;;;;;;;;;;;;4955362;28;802;-67
2020/12/02 02:19:13;;;;;;;;;;;;;;;;;;4955222;28;810;-68
2020/12/02 02:21:39;;;;;;;;;;;;;;;;;;4954223;28;1448;-67
2020/12/02 02:24:04;;;;;;;;;;;;;;;;;;4937907;29;1211;-66
2020/12/02 02:26:37;;;;;;;;;;;;;;;;;;4954479;28;874;-67
2020/12/02 02:29:02;;;;;;;;;;;;;;;;;;4954956;28;1948;-67
2020/12/02 02:31:29;;;;;;;;;;;;;;;;;;4954269;28;1480;-67
2020/12/02 02:33:54;;;;;;;;;;;;;;;;;;4955201;28;861;-67
2020/12/02 02:36:22;;;;;;;;;;;;;;;;;;4955077;28;818;-67
2020/12/02 02:38:47;;;;;;;;;;;;;;;;;;4954683;28;892;-67
2020/12/02 02:41:13;;;;;;;;;;;;;;;;;;4953833;28;1361;-68
2020/12/02 02:43:39;;;;;;;;;;;;;;;;;;4954208;28;1314;-67
2020/12/02 02:46:04;;;;;;;;;;;;;;;;;;4954624;28;817;-68
2020/12/02 02:48:31;;;;;;;;;;;;;;;;;;4953658;28;1946;-68
2020/12/02 02:50:56;;;;;;;;;;;;;;;;;;4953648;28;1485;-68
2020/12/02 02:53:23;;;;;;;;;;;;;;;;;;4955007;28;1522;-69
2020/12/02 02:55:48;;;;;;;;;;;;;;;;;;4954775;28;983;-68
2020/12/02 02:58:14;;;;;;;;;;;;;;;;;;4953555;28;1234;-69
2020/12/02 03:00:40;;;;;;;;;;;;;;;;;;4953884;28;1388;-68
2020/12/02 03:03:07;;;;;;;;;;;;;;;;;;4954432;28;1341;-69
2020/12/02 03:05:33;;;;;;;;;;;;;;;;;;4953517;28;902;-68
2020/12/02 03:08:00;;;;;;;;;;;;;;;;;;4951877;28;1951;-69
2020/12/02 03:10:27;;;;;;;;;;;;;;;;;;4953545;28;1235;-66
2020/12/02 03:12:53;;;;;;;;;;;;;;;;;;4954312;28;1362;-68
2020/12/02 03:15:19;;;;;;;;;;;;;;;;;;4954505;28;861;-66
2020/12/02 03:17:44;;;;;;;;;;;;;;;;;;4954514;28;932;-65
2020/12/02 03:20:13;;;;;;;;;;;;;;;;;;4953141;28;1579;-65
2020/12/02 03:22:38;;;;;;;;;;;;;;;;;;4954463;28;1338;-66
2020/12/02 03:25:04;;;;;;;;;;;;;;;;;;4952972;29;885;-66
2020/12/02 03:27:29;;;;;;;;;;;;;;;;;;4954397;28;1902;-65
2020/12/02 03:29:54;;;;;;;;;;;;;;;;;;4954063;28;1010;-65
2020/12/02 03:32:20;;;;;;;;;;;;;;;;;;4954235;28;1349;-64
2020/12/02 03:34:46;;;;;;;;;;;;;;;;;;4954571;28;869;-66
2020/12/02 03:37:11;;;;;;;;;;;;;;;;;;4954168;28;1150;-65
2020/12/02 03:39:37;;;;;;;;;;;;;;;;;;4954201;28;941;-63
2020/12/02 03:42:03;;;;;;;;;;;;;;;;;;4953942;28;1322;-66
2020/12/02 03:44:28;;;;;;;;;;;;;;;;;;4954446;28;865;-64
2020/12/02 03:46:53;;;;;;;;;;;;;;;;;;4953818;28;1965;-65
2020/12/02 03:49:18;;;;;;;;;;;;;;;;;;4954136;28;913;-66
2020/12/02 03:51:44;;;;;;;;;;;;;;;;;;4954307;28;1315;-65
2020/12/02 03:54:09;;;;;;;;;;;;;;;;;;4953808;28;937;-65
2020/12/02 03:56:35;;;;;;;;;;;;;;;;;;4953804;28;909;-60
2020/12/02 03:59:00;;;;;;;;;;;;;;;;;;4953776;28;901;-64
2020/12/02 04:01:25;;;;;;;;;;;;;;;;;;4953135;28;1330;-65
2020/12/02 04:03:51;;;;;;;;;;;;;;;;;;4953985;28;848;-66
2020/12/02 04:06:16;;;;;;;;;;;;;;;;;;4953954;28;786;-63
2020/12/02 04:08:42;;;;;;;;;;;;;;;;;;4952592;28;1891;-64
2020/12/02 04:11:08;;;;;;;;;;;;;;;;;;4952350;28;1333;-65
2020/12/02 04:13:34;;;;;;;;;;;;;;;;;;4952607;28;803;-64
2020/12/02 04:15:59;;;;;;;;;;;;;;;;;;4953400;28;1036;-65
2020/12/02 04:18:25;;;;;;;;;;;;;;;;;;4953286;28;909;-66
2020/12/02 04:20:50;;;;;;;;;;;;;;;;;;4952531;28;1199;-63
2020/12/02 04:23:15;;;;;;;;;;;;;;;;;;4953393;28;1318;-67
2020/12/02 04:25:40;;;;;;;;;;;;;;;;;;4952455;28;825;-65
2020/12/02 04:28:06;;;;;;;;;;;;;;;;;;4951975;28;1895;-64
2020/12/02 04:30:31;;;;;;;;;;;;;;;;;;4953766;28;922;-63
2020/12/02 04:32:56;;;;;;;;;;;;;;;;;;4953130;28;1362;-65
2020/12/02 04:35:22;;;;;;;;;;;;;;;;;;4953511;28;912;-63
2020/12/02 04:37:47;;;;;;;;;;;;;;;;;;4953016;28;1140;-66
2020/12/02 04:40:15;;;;;;;;;;;;;;;;;;4953433;28;964;-65
2020/12/02 04:42:43;;;;;;;;;;;;;;;;;;4953333;28;1397;-58
2020/12/02 04:45:11;;;;;;;;;;;;;;;;;;4953016;28;849;-62
2020/12/02 04:47:38;;;;;;;;;;;;;;;;;;4953394;28;1895;-65
2020/12/02 04:50:09;;;;;;;;;;;;;;;;;;4952078;28;881;-65
2020/12/02 04:52:34;;;;;;;;;;;;;;;;;;4953396;28;1472;-65
2020/12/02 04:54:59;;;;;;;;;;;;;;;;;;4952948;28;843;-67
2020/12/02 04:57:25;;;;;;;;;;;;;;;;;;4953081;28;806;-65
2020/12/02 04:59:50;;;;;;;;;;;;;;;;;;4952604;28;886;-65
2020/12/02 05:02:28;;;;;;;;;;;;;;;;;;4953326;28;1460;-64
2020/12/02 05:04:58;;;;;;;;;;;;;;;;;;4952723;28;1402;-66
2020/12/02 05:07:27;;;;;;;;;;;;;;;;;;4952613;28;1894;-64
2020/12/02 05:09:57;;;;;;;;;;;;;;;;;;4952760;28;1398;-66
2020/12/02 05:12:24;;;;;;;;;;;;;;;;;;4952645;28;1350;-66
2020/12/02 05:14:50;;;;;;;;;;;;;;;;;;4952843;28;806;-65
2020/12/02 05:17:25;;;;;;;;;;;;;;;;;;4952726;28;964;-65
2020/12/02 05:20:11;;;;;;;;;;;;;;;;;;4951415;28;2121;-66
2020/12/02 05:22:38;;;;;;;;;;;;;;;;;;4952418;28;1299;-66
2020/12/02 05:25:05;;;;;;;;;;;;;;;;;;4951027;28;938;-67
2020/12/02 05:27:32;;;;;;;;;;;;;;;;;;4952566;28;1902;-62
2020/12/02 05:30:03;;;;;;;;;;;;;;;;;;4951542;28;981;-64
2020/12/02 05:32:29;;;;;;;;;;;;;;;;;;4951377;28;1362;-68
2020/12/02 05:34:54;;;;;;;;;;;;;;;;;;4952314;28;806;-63
2020/12/02 05:37:40;;;;;;;;;;;;;;;;;;4952511;28;846;-69
2020/12/02 05:40:06;;;;;;;;;;;;;;;;;;4951261;28;1383;-65
2020/12/02 05:42:40;;;;;;;;;;;;;;;;;;4952216;28;1421;-64
2020/12/02 05:45:14;;;;;;;;;;;;;;;;;;4950954;28;1179;-64
2020/12/02 05:47:40;;;;;;;;;;;;;;;;;;4951138;28;1973;-63
2020/12/02 05:50:07;;;;;;;;;;;;;;;;;;4951014;28;879;-59
2020/12/02 05:52:33;;;;;;;;;;;;;;;;;;4952673;28;1361;-65
2020/12/02 05:55:02;;;;;;;;;;;;;;;;;;4952211;28;890;-65
2020/12/02 05:57:27;;;;;;;;;;;;;;;;;;4952209;28;1214;-64
2020/12/02 05:59:56;;;;;;;;;;;;;;;;;;4952222;28;1009;-69
2020/12/02 06:02:22;;;;;;;;;;;;;;;;;;4951010;28;1373;-65
2020/12/02 06:04:52;;;;;;;;;;;;;;;;;;4952168;28;1007;-68
2020/12/02 06:07:17;;;;;;;;;;;;;;;;;;4950767;28;1898;-65
2020/12/02 06:09:44;;;;;;;;;;;;;;;;;;4950683;28;1795;-67
2020/12/02 06:12:11;;;;;;;;;;;;;;;;;;4952168;28;1326;-69
2020/12/02 06:14:36;;;;;;;;;;;;;;;;;;4950946;28;1559;-65
2020/12/02 06:17:02;;;;;;;;;;;;;;;;;;4951718;28;937;-65
2020/12/02 06:19:29;;;;;;;;;;;;;;;;;;4935085;28;1384;-67
2020/12/02 06:21:56;;;;;;;;;;;;;;;;;;4934707;28;1448;-67
2020/12/02 06:24:37;;;;;;;;;;;;;;;;;;4950672;28;794;-62
2020/12/02 06:27:22;;;;;;;;;;;;;;;;;;4950373;28;1971;-66
2020/12/02 06:29:56;;;;;;;;;;;;;;;;;;4951387;28;1852;-65
2020/12/02 06:32:24;;;;;;;;;;;;;;;;;;4951924;28;1334;-60
2020/12/02 06:34:50;;;;;;;;;;;;;;;;;;4951871;28;802;-66
2020/12/02 06:37:20;;;;;;;;;;;;;;;;;;4950364;28;1406;-65
2020/12/02 06:39:53;;;;;;;;;;;;;;;;;;4950542;28;1222;-68
2020/12/02 06:42:23;;;;;;;;;;;;;;;;;;4954372;28;1359;-65
2020/12/02 06:45:08;;;;;;;;;;;;;;;;;;4953994;29;1247;-68
2020/12/02 06:47:35;;;;;;;;;;;;;;;;;;4953258;29;1965;-67
2020/12/02 06:50:03;;;;;;;;;;;;;;;;;;4955267;28;881;-68
2020/12/02 06:52:33;;;;;;;;;;;;;;;;;;4953798;28;1443;-69
2020/12/02 06:55:00;;;;;;;;;;;;;;;;;;4955055;28;873;-67
2020/12/02 06:57:26;;;;;;;;;;;;;;;;;;4937891;28;1579;-65
2020/12/02 06:59:56;;;;;;;;;;;;;;;;;;4953440;28;2354;-65
2020/12/02 07:02:42;;;;;;;;;;;;;;;;;;4954859;28;1295;-69
2020/12/02 07:05:14;;;;;;;;;;;;;;;;;;4954593;28;882;-61
2020/12/02 07:07:40;;;;;;;;;;;;;;;;;;4954676;28;1922;-62
2020/12/02 07:10:13;;;;;;;;;;;;;;;;;;4954583;28;866;-67
2020/12/02 07:12:39;;;;;;;;;;;;;;;;;;4954618;28;1433;-69
2020/12/02 07:15:04;;;;;;;;;;;;;;;;;;4954295;28;905;-65
2020/12/02 07:17:29;;;;;;;;;;;;;;;;;;4953438;28;1003;-61
2020/12/02 07:20:02;;;;;;;;;;;;;;;;;;4953274;28;1412;-68
2020/12/02 07:22:31;;;;;;;;;;;;;;;;;;4953378;28;1586;-63
2020/12/02 07:25:00;;;;;;;;;;;;;;;;;;4954362;28;957;-65
2020/12/02 07:27:26;;;;;;;;;;;;;;;;;;4953256;28;1969;-65
2020/12/02 07:29:58;;;;;;;;;;;;;;;;;;4952971;28;858;-66
2020/12/02 07:32:24;;;;;;;;;;;;;;;;;;4953292;28;1469;-69
2020/12/02 07:34:58;;;;;;;;;;;;;;;;;;4954328;28;845;-67
2020/12/02 07:37:23;;;;;;;;;;;;;;;;;;4953648;28;1242;-67
2020/12/02 07:39:53;;;;;;;;;;;;;;;;;;4952986;28;889;-66
2020/12/02 07:42:24;;;;;;;;;;;;;;;;;;4954260;28;1414;-66
2020/12/02 07:45:10;;;;;;;;;;;;;;;;;;4954017;28;1065;-62
2020/12/02 07:47:35;;;;;;;;;;;;;;;;;;4952703;29;1952;-68
2020/12/02 07:50:03;;;;;;;;;;;;;;;;;;4952910;28;894;-69
2020/12/02 07:52:33;;;;;;;;;;;;;;;;;;4953575;28;1382;-64
2020/12/02 07:54:59;;;;;;;;;;;;;;;;;;4953396;28;1258;-66
2020/12/02 07:57:25;;;;;;;;;;;;;;;;;;4954050;28;906;-66
2020/12/02 08:00:11;;;;;;;;;;;;;;;;;;4953697;28;865;-64
2020/12/02 08:02:40;;;;;;;;;;;;;;;;;;4953174;29;1306;-64
2020/12/02 08:05:20;;;;;;;;;;;;;;;;;;4953899;28;909;-63
2020/12/02 08:07:58;;;;;;;;;;;;;;;;;;4953525;28;1961;-65
2020/12/02 08:10:25;;;;;;;;;;;;;;;;;;4954024;28;869;-68
2020/12/02 08:12:50;;;;;;;;;;;;;;;;;;4952450;28;1366;-62
2020/12/02 08:15:16;;;;;;;;;;;;;;;;;;4952308;28;842;-67
2020/12/02 08:17:57;;;;;;;;;;;;;;;;;;4953422;28;849;-66
2020/12/02 08:20:27;;;;;;;;;;;;;;;;;;4953826;28;826;-66
2020/12/02 08:22:53;;;;;;;;;;;;;;;;;;4953313;28;1433;-68
2020/12/02 08:25:45;;;;;;;;;;;;;;;;;;4953398;28;971;-67
2020/12/02 08:28:14;;;;;;;;;;;;;;;;;;4952815;28;1899;-65
2020/12/02 08:30:39;;;;;;;;;;;;;;;;;;4952363;28;2412;-65
2020/12/02 08:33:15;;;;;;;;;;;;;;;;;;4953023;28;1421;-64
2020/12/02 08:35:40;;;;;;;;;;;;;;;;;;4953442;28;822;-64
2020/12/02 08:38:10;;;;;;;;;;;;;;;;;;4953166;28;838;-67
2020/12/02 08:40:49;;;;;;;;;;;;;;;;;;4952192;28;2609;-67
2020/12/02 08:43:25;;;;;;;;;;;;;;;;;;4953146;28;1448;-65
2020/12/02 08:46:17;;;;;;;;;;;;;;;;;;4953265;28;929;-63
2020/12/02 08:48:43;;;;;;;;;;;;;;;;;;4951536;29;1898;-63
2020/12/02 08:51:13;;;;;;;;;;;;;;;;;;4951955;28;1254;-69
2020/12/02 08:53:38;;;;;;;;;;;;;;;;;;4953250;28;831;-64
2020/12/02 08:56:03;;;;;;;;;;;;;;;;;;4951767;28;842;-69
2020/12/02 08:58:29;;;;;;;;;;;;;;;;;;4953229;28;858;-66
2020/12/02 09:00:54;;;;;;;;;;;;;;;;;;4953233;28;841;-68
2020/12/02 09:03:22;;;;;;;;;;;;;;;;;;4952768;28;1420;-67
2020/12/02 09:05:47;;;;;;;;;;;;;;;;;;4952980;28;810;-65
2020/12/02 09:08:12;;;;;;;;;;;;;;;;;;4952675;28;1956;-66
2020/12/02 09:10:38;;;;;;;;;;;;;;;;;;4953275;28;936;-65
2020/12/02 09:13:03;;;;;;;;;;;;;;;;;;4951325;28;1460;-70
2020/12/02 09:15:29;;;;;;;;;;;;;;;;;;4951790;28;1300;-66
2020/12/02 09:17:55;;;;;;;;;;;;;;;;;;4935687;29;1376;-70
2020/12/02 09:20:20;;;;;;;;;;;;;;;;;;4952926;28;1376;-67
2020/12/02 09:22:46;;;;;;;;;;;;;;;;;;4952613;28;1346;-69
2020/12/02 09:25:11;;;;;;;;;;;;;;;;;;4935414;28;825;-66
2020/12/02 09:27:36;;;;;;;;;;;;;;;;;;4952687;28;1958;-64
2020/12/02 09:30:03;;;;;;;;;;;;;;;;;;4951439;28;866;-68
2020/12/02 09:32:28;;;;;;;;;;;;;;;;;;4951372;28;1440;-66
2020/12/02 09:34:53;;;;;;;;;;;;;;;;;;4952413;28;858;-67
2020/12/02 09:37:19;;;;;;;;;;;;;;;;;;4950970;28;1409;-64
2020/12/02 09:39:44;;;;;;;;;;;;;;;;;;4951214;28;1476;-67
2020/12/02 09:42:17;;;;;;;;;;;;;;;;;;4952500;28;1326;-66
2020/12/02 09:45:01;;;;;;;;;;;;;;;;;;4951457;28;849;-67
2020/12/02 09:47:27;;;;;;;;;;;;;;;;;;4950926;28;1895;-69
2020/12/02 09:49:52;;;;;;;;;;;;;;;;;;4952266;28;791;-68
2020/12/02 09:52:23;;;;;;;;;;;;;;;;;;4950999;28;1473;-67
2020/12/02 09:54:49;;;;;;;;;;;;;;;;;;4951062;28;1223;-66
2020/12/02 09:57:23;;;;;;;;;;;;;;;;;;4950957;28;818;-63
2020/12/02 09:59:48;;;;;;;;;;;;;;;;;;4950897;28;895;-67
2020/12/02 10:02:16;;;;;;;;;;;;;;;;;;4952017;28;1338;-62
2020/12/02 10:05:00;;;;;;;;;;;;;;;;;;4952113;28;860;-67
2020/12/02 10:07:37;;;;;;;;;;;;;;;;;;4950849;28;1965;-67
2020/12/02 10:10:21;;;;;;;;;;;;;;;;;;4951640;28;1031;-65
2020/12/02 10:13:02;;;;;;;;;;;;;;;;;;4952353;28;1381;-68
2020/12/02 10:15:27;;;;;;;;;;;;;;;;;;4950877;28;1314;-65
2020/12/02 10:18:04;;;;;;;;;;;;;;;;;;4953902;28;904;-64
2020/12/02 10:20:47;;;;;;;;;;;;;;;;;;4954423;28;823;-66
2020/12/02 10:23:15;;;;;;;;;;;;;;;;;;4955146;28;1326;-68
2020/12/02 10:25:43;;;;;;;;;;;;;;;;;;4955150;28;954;-64
2020/12/02 10:28:18;;;;;;;;;;;;;;;;;;4953801;28;2668;-68
2020/12/02 10:30:58;;;;;;;;;;;;;;;;;;4954651;28;766;-64
2020/12/02 10:33:27;;;;;;;;;;;;;;;;;;4955035;28;1433;-68
2020/12/02 10:35:53;;;;;;;;;;;;;;;;;;4955033;28;960;-68
2020/12/02 10:38:27;;;;;;;;;;;;;;;;;;4955151;28;814;-64
2020/12/02 10:40:55;;;;;;;;;;;;;;;;;;4953781;28;1659;-64
2020/12/02 10:43:27;;;;;;;;;;;;;;;;;;4954993;28;1422;-67
2020/12/02 10:45:55;;;;;;;;;;;;;;;;;;4953834;28;815;-67
2020/12/02 10:48:32;;;;;;;;;;;;;;;;;;4954987;28;1972;-66
2020/12/02 10:50:59;;;;;;;;;;;;;;;;;;4955007;28;810;-70
2020/12/02 10:53:25;;;;;;;;;;;;;;;;;;4953751;28;1456;-67
2020/12/02 10:55:51;;;;;;;;;;;;;;;;;;4953575;28;802;-65
2020/12/02 10:58:25;;;;;;;;;;;;;;;;;;4955188;28;861;-67
2020/12/02 11:00:54;;;;;;;;;;;;;;;;;;4955022;28;881;-66
2020/12/02 11:03:19;;;;;;;;;;;;;;;;;;4954771;28;1420;-68
2020/12/02 11:05:51;;;;;;;;;;;;;;;;;;4953656;28;1416;-69
2020/12/02 11:08:28;;;;;;;;;;;;;;;;;;4953345;28;1951;-67
2020/12/02 11:10:53;;;;;;;;;;;;;;;;;;4954763;28;913;-68
2020/12/02 11:13:19;;;;;;;;;;;;;;;;;;4953427;28;1358;-67
2020/12/02 11:15:58;;;;;;;;;;;;;;;;;;4954998;28;871;-67
2020/12/02 11:18:42;;;;;;;;;;;;;;;;;;4954722;28;852;-70
2020/12/02 11:21:10;;;;;;;;;;;;;;;;;;4954540;28;863;-64
2020/12/02 11:23:50;;;;;;;;;;;;;;;;;;4953110;28;830;-68
2020/12/02 11:26:16;;;;;;;;;;;;;;;;;;4954067;28;961;-68
2020/12/02 11:28:42;;;;;;;;;;;;;;;;;;4952956;28;1955;-68
2020/12/02 11:31:19;;;;;;;;;;;;;;;;;;4985635;28;906;-69
2020/12/02 11:34:14;;;;;;;;;;;;;;;;;;4954337;28;924;-68
2020/12/02 11:36:42;;;;;;;;;;;;;;;;;;4949826;28;1500;-68
2020/12/02 11:39:19;;;;;;;;;;;;;;;;;;4954138;28;814;-70
2020/12/02 11:41:53;;;;;;;;;;;;;;;;;;4954374;28;1403;-69
2020/12/02 11:44:25;;;;;;;;;;;;;;;;;;4953837;28;854;-69
2020/12/02 11:46:55;;;;;;;;;;;;;;;;;;4954137;28;897;-70
2020/12/02 11:49:26;;;;;;;;;;;;;;;;;;4985360;28;1963;-66
2020/12/02 11:52:17;;;;;;;;;;;;;;;;;;4985545;28;1389;-66
2020/12/02 11:54:43;;;;;;;;;;;;;;;;;;4951749;29;1203;-68
2020/12/02 11:57:10;;;;;;;;;;;;;;;;;;4953887;28;889;-67
2020/12/02 11:59:35;;;;;;;;;;;;;;;;;;4954005;28;830;-68
2020/12/02 12:02:00;;;;;;;;;;;;;;;;;;4954013;28;1401;-67
2020/12/02 12:04:32;;;;;;;;;;;;;;;;;;4985076;28;869;-69
2020/12/02 12:07:00;;;;;;;;;;;;;;;;;;4953574;28;838;-67
2020/12/02 12:09:38;;;;;;;;;;;;;;;;;;4952661;28;1891;-66
2020/12/02 12:12:16;;;;;;;;;;;;;;;;;;4953650;28;1656;-66
2020/12/02 12:14:53;;;;;;;;;;;;;;;;;;4953375;28;2082;-69
2020/12/02 12:17:22;;;;;;;;;;;;;;;;;;4936688;28;1468;-69
2020/12/02 12:19:58;;;;;;;;;;;;;;;;;;4933553;29;869;-69
2020/12/02 12:22:30;;;;;;;;;;;;;;;;;;4933493;29;1484;-64
2020/12/02 12:24:57;;;;;;;;;;;;;;;;;;4934575;28;918;-68
2020/12/02 12:27:23;;;;;;;;;;;;;;;;;;4917309;28;1902;-67
2020/12/02 12:29:48;;;;;;;;;;;;;;;;;;4934493;29;806;-67
2020/12/02 12:32:26;;;;;;;;;;;;;;;;;;4933354;28;1484;-70
2020/12/02 12:34:52;;;;;;;;;;;;;;;;;;4934301;29;826;-68
2020/12/02 12:37:20;;;;;;;;;;;;;;;;;;4934418;28;881;-65
2020/12/02 12:39:46;;;;;;;;;;;;;;;;;;4933905;29;851;-68
2020/12/02 12:42:13;;;;;;;;;;;;;;;;;;4933448;28;1444;-68
2020/12/02 12:44:41;;;;;;;;;;;;;;;;;;4934146;29;921;-71
2020/12/02 12:47:09;;;;;;;;;;;;;;;;;;4933653;29;1894;-68
2020/12/02 12:49:34;;;;;;;;;;;;;;;;;;4934431;28;806;-61
2020/12/02 12:52:01;;;;;;;;;;;;;;;;;;4932893;28;1338;-63
2020/12/02 12:54:27;;;;;;;;;;;;;;;;;;4933143;29;1187;-63
2020/12/02 12:56:53;;;;;;;;;;;;;;;;;;4932502;29;878;-61
2020/12/02 12:59:20;;;;;;;;;;;;;;;;;;4934231;29;839;-56
2020/12/02 13:01:47;;;;;;;;;;;;;;;;;;4932887;28;1405;-62
2020/12/02 13:04:13;;;;;;;;;;;;;;;;;;4933883;29;840;-60
2020/12/02 13:06:39;;;;;;;;;;;;;;;;;;5005831;28;2076;-61
2020/12/02 13:09:14;;;;;;;;;;;;;;;;;;5018120;28;1906;-62
2020/12/02 13:11:39;;;;;;;;;;;;;;;;;;5052322;28;1389;-59
2020/12/02 13:14:12;;;;;;;;;;;;;;;;;;5053208;28;814;-62
2020/12/02 13:16:45;;;;;;;;;;;;;;;;;;5052096;28;874;-60
2020/12/02 13:19:15;;;;;;;;;;;;;;;;;;5053165;28;1144;-63
2020/12/02 13:21:44;;;;;;;;;;;;;;;;;;5053652;28;1389;-60
2020/12/02 13:24:10;;;;;;;;;;;;;;;;;;5053279;28;948;-63
2020/12/02 13:26:36;;;;;;;;;;;;;;;;;;5053147;28;967;-61
2020/12/02 13:29:16;;;;;;;;;;;;;;;;;;5051857;28;1955;-64
2020/12/02 13:31:49;;;;;;;;;;;;;;;;;;5053569;28;1326;-64
2020/12/02 13:34:14;;;;;;;;;;;;;;;;;;5052235;28;810;-61
2020/12/02 13:36:39;;;;;;;;;;;;;;;;;;5052295;28;908;-62
2020/12/02 13:39:06;;;;;;;;;;;;;;;;;;5053143;28;857;-62
2020/12/02 13:41:32;;;;;;;;;;;;;;;;;;5052036;28;1349;-65
2020/12/02 13:43:59;;;;;;;;;;;;;;;;;;5013725;28;1843;-64
2020/12/02 13:46:24;;;;;;;;;;;;;;;;;;4951975;28;794;-59
2020/12/02 13:48:52;;;;;;;;;;;;;;;;;;4966956;28;1886;-65
2020/12/02 13:51:33;;;;;;;;;;;;;;;;;;4966256;28;1334;-62
2020/12/02 13:54:01;;;;;;;;;;;;;;;;;;4952011;28;889;-58
2020/12/02 13:56:31;;;;;;;;;;;;;;;;;;4951909;28;884;-64
2020/12/02 13:59:06;;;;;;;;;;;;;;;;;;4966835;28;835;-61
2020/12/02 14:01:32;;;;;;;;;;;;;;;;;;4966958;28;1338;-58
2020/12/02 14:03:57;;;;;;;;;;;;;;;;;;4966717;28;1436;-63
2020/12/02 14:06:41;;;;;;;;;;;;;;;;;;4952187;28;936;-59
2020/12/02 14:09:10;;;;;;;;;;;;;;;;;;4951497;29;1942;-58
2020/12/02 14:11:55;;;;;;;;;;;;;;;;;;4952176;28;1366;-59
2020/12/02 14:14:26;;;;;;;;;;;;;;;;;;4951931;28;1149;-59
2020/12/02 14:16:54;;;;;;;;;;;;;;;;;;4966639;28;818;-57
2020/12/02 14:19:19;;;;;;;;;;;;;;;;;;4951904;28;1161;-61
2020/12/02 14:21:45;;;;;;;;;;;;;;;;;;4952327;28;1424;-58
2020/12/02 14:24:10;;;;;;;;;;;;;;;;;;4951958;28;865;-62
2020/12/02 14:26:35;;;;;;;;;;;;;;;;;;4951097;28;1603;-63
2020/12/02 14:29:01;;;;;;;;;;;;;;;;;;4934741;28;1902;-62
2020/12/02 14:31:26;;;;;;;;;;;;;;;;;;4967106;28;1396;-64
2020/12/02 14:33:52;;;;;;;;;;;;;;;;;;4952121;28;837;-63
2020/12/02 14:36:17;;;;;;;;;;;;;;;;;;4952056;28;913;-61
2020/12/02 14:38:42;;;;;;;;;;;;;;;;;;4950818;28;1224;-61
2020/12/02 14:41:09;;;;;;;;;;;;;;;;;;4951992;28;818;-60
2020/12/02 14:43:36;;;;;;;;;;;;;;;;;;4952229;28;809;-60
2020/12/02 14:46:04;;;;;;;;;;;;;;;;;;4951419;28;870;-61
2020/12/02 14:48:30;;;;;;;;;;;;;;;;;;4966854;28;1941;-60
2020/12/02 14:50:56;;;;;;;;;;;;;;;;;;4952088;28;948;-60
2020/12/02 14:53:21;;;;;;;;;;;;;;;;;;4951900;28;1444;-61
2020/12/02 14:55:57;;;;;;;;;;;;;;;;;;4951694;28;815;-64
2020/12/02 14:58:30;;;;;;;;;;;;;;;;;;4951960;28;901;-61
2020/12/02 15:00:59;;;;;;;;;;;;;;;;;;4952119;28;882;-61
2020/12/02 15:03:26;;;;;;;;;;;;;;;;;;4954095;28;1338;-64
2020/12/02 15:05:52;;;;;;;;;;;;;;;;;;4954890;28;898;-63
2020/12/02 15:08:26;;;;;;;;;;;;;;;;;;4954541;28;1957;-65
2020/12/02 15:10:52;;;;;;;;;;;;;;;;;;4954913;28;889;-64
2020/12/02 15:13:19;;;;;;;;;;;;;;;;;;4969807;28;1436;-64
2020/12/02 15:15:45;;;;;;;;;;;;;;;;;;4954743;28;1140;-60
2020/12/02 15:18:11;;;;;;;;;;;;;;;;;;4953253;29;937;-66
2020/12/02 15:20:48;;;;;;;;;;;;;;;;;;4954110;28;823;-61
2020/12/02 15:23:16;;;;;;;;;;;;;;;;;;4954842;28;1481;-63
2020/12/02 15:25:41;;;;;;;;;;;;;;;;;;4954523;28;1801;-64
2020/12/02 15:28:11;;;;;;;;;;;;;;;;;;4937069;28;1899;-65
2020/12/02 15:30:40;;;;;;;;;;;;;;;;;;4954769;28;894;-66
2020/12/02 15:33:08;;;;;;;;;;;;;;;;;;4952992;28;1419;-64
2020/12/02 15:35:37;;;;;;;;;;;;;;;;;;4954635;28;1251;-60
2020/12/02 15:38:02;;;;;;;;;;;;;;;;;;4954398;28;865;-62
2020/12/02 15:40:37;;;;;;;;;;;;;;;;;;4969774;28;878;-64
2020/12/02 15:43:25;;;;;;;;;;;;;;;;;;4968992;28;1468;-64
2020/12/02 15:46:00;;;;;;;;;;;;;;;;;;4959377;28;992;-61
2020/12/02 15:48:28;;;;;;;;;;;;;;;;;;4954497;28;1957;-62
2020/12/02 15:51:12;;;;;;;;;;;;;;;;;;4969420;28;1218;-57
2020/12/02 15:53:37;;;;;;;;;;;;;;;;;;4969243;28;721;-59
2020/12/02 15:56:11;;;;;;;;;;;;;;;;;;4969009;28;764;-63
2020/12/02 15:58:46;;;;;;;;;;;;;;;;;;4969339;28;940;-64
2020/12/02 16:01:18;;;;;;;;;;;;;;;;;;4954395;28;1436;-61
2020/12/02 16:03:43;;;;;;;;;;;;;;;;;;4954369;28;806;-63
2020/12/02 16:06:08;;;;;;;;;;;;;;;;;;4954163;28;806;-58
2020/12/02 16:08:34;;;;;;;;;;;;;;;;;;4954002;28;1894;-64
2020/12/02 16:11:02;;;;;;;;;;;;;;;;;;4954139;28;1296;-61
2020/12/02 16:13:28;;;;;;;;;;;;;;;;;;4968664;28;1643;-62
2020/12/02 16:15:53;;;;;;;;;;;;;;;;;;4952626;28;1280;-64
2020/12/02 16:18:18;;;;;;;;;;;;;;;;;;4952814;28;985;-59
2020/12/02 16:20:43;;;;;;;;;;;;;;;;;;4954630;28;814;-62
2020/12/02 16:23:15;;;;;;;;;;;;;;;;;;4953576;28;1420;-63
2020/12/02 16:25:45;;;;;;;;;;;;;;;;;;4953823;28;832;-60
2020/12/02 16:28:11;;;;;;;;;;;;;;;;;;4968445;28;1899;-64
2020/12/02 16:30:37;;;;;;;;;;;;;;;;;;4954134;28;1106;-63
2020/12/02 16:33:11;;;;;;;;;;;;;;;;;;4953725;28;1444;-63
2020/12/02 16:35:36;;;;;;;;;;;;;;;;;;4969029;28;1140;-62
2020/12/02 16:38:02;;;;;;;;;;;;;;;;;;4952349;28;854;-62
2020/12/02 16:40:27;;;;;;;;;;;;;;;;;;4968874;28;1386;-58
2020/12/02 16:42:56;;;;;;;;;;;;;;;;;;4953766;28;1456;-60
2020/12/02 16:45:33;;;;;;;;;;;;;;;;;;4953834;28;878;-60
2020/12/02 16:48:15;;;;;;;;;;;;;;;;;;4953205;28;1934;-60
2020/12/02 16:50:43;;;;;;;;;;;;;;;;;;4968782;28;2536;-63
2020/12/02 16:53:23;;;;;;;;;;;;;;;;;;4953304;28;1393;-64
2020/12/02 16:55:54;;;;;;;;;;;;;;;;;;4968338;28;1210;-62
2020/12/02 16:58:21;;;;;;;;;;;;;;;;;;4953564;28;1179;-65
2020/12/02 17:00:48;;;;;;;;;;;;;;;;;;4953319;28;850;-64
2020/12/02 17:03:15;;;;;;;;;;;;;;;;;;4968165;28;1440;-59
2020/12/02 17:05:42;;;;;;;;;;;;;;;;;;4968323;28;1202;-63
2020/12/02 17:08:08;;;;;;;;;;;;;;;;;;4953128;28;1945;-61
2020/12/02 17:10:34;;;;;;;;;;;;;;;;;;4968408;28;906;-66
2020/12/02 17:13:13;;;;;;;;;;;;;;;;;;4967907;28;1329;-63
2020/12/02 17:15:45;;;;;;;;;;;;;;;;;;4953122;28;873;-64
2020/12/02 17:18:16;;;;;;;;;;;;;;;;;;4953099;28;1036;-64
2020/12/02 17:20:52;;;;;;;;;;;;;;;;;;4953452;28;881;-64
2020/12/02 17:23:17;;;;;;;;;;;;;;;;;;4953099;28;1413;-62